Главная страница
METAR-TAF:

METAR-TAF

Аэропорты :

Кано, Нигерия

широта: 12-03N, долгота: 008-32E, высота над уровнем моря: 476 м

Текущие метеонаблюдения

Эта сводка был подготовлена 43 минут назад, в 21:00 UTC
Штиль
Температура 19°C
Влажность 43%
Давление 1019 hPa
Видимость 10 км и более
Нет облачности ниже 1500 м, и нет кучево-дождевой облачности

METAR: DNKN 142100Z 00000KT CAVOK 19/06 Q1019 NOSIG

Время: 22:43 (21:43 UTC)

Прогноз

Эта сводка был подготовлена 6 часа и 13 минут назад, в 15:30 UTC
Прогноз действительный с 14-го 18 UTC до 15-го 24 UTC
Ветер 10 Узел от восточно-северо-восточный
Видимость 10 км и более
Нет облачности ниже 1500 м, и нет кучево-дождевой облачности
временами
С 14-го 20 UTC до 15-го 02 UTC
Ветер 2 Узел переменных направлений

TAF: DNKN 141530Z 1418/1524 07010KT CAVOK TEMPO 1420/1502 VRB02KT

Метеонаблюдения и прогнозы для более 4000 аэропортов (сводки METAR и TAF).

Имеющиеся станции представлены на карте желтыми и красными точками.

Чтобы увидеть название станции, наведите на нее мышь.

Затем щелкните, чтобы увидеть метеонаблюдения и метеопрогнозы.

Управление картой: чтобы увеличить масштаб, щелкните зеленые кнопки с черным крестиком; чтобы уменьшить масштаб, щелкните зеленую кнопку с тире; для просмотра соседних карт щелкайте зеленые стрелки.


METAR-TAF: